createdAt,value
2023-04-13T00:00:50.866Z,9.20
2023-04-13T00:03:19.054Z,9.20
2023-04-13T00:05:48.579Z,9.20
2023-04-13T00:08:17.395Z,9.20
2023-04-13T00:10:46.233Z,9.20
2023-04-13T00:13:15.743Z,9.10
2023-04-13T00:15:44.672Z,9.00
2023-04-13T00:18:13.040Z,9.10
2023-04-13T00:20:43.353Z,9.00
2023-04-13T00:23:11.469Z,9.00
2023-04-13T00:25:39.553Z,9.00
2023-04-13T00:28:07.811Z,8.80
2023-04-13T00:30:37.324Z,8.90
2023-04-13T00:33:05.378Z,8.80
2023-04-13T00:35:33.959Z,8.80
2023-04-13T00:38:02.702Z,8.80
2023-04-13T00:40:30.983Z,8.70
2023-04-13T00:43:00.713Z,8.70
2023-04-13T00:45:29.468Z,8.60
2023-04-13T00:48:00.369Z,8.60
2023-04-13T00:50:28.560Z,8.60
2023-04-13T00:52:58.079Z,8.50
2023-04-13T00:55:27.724Z,8.60
2023-04-13T00:57:58.003Z,8.70
2023-04-13T01:00:27.190Z,8.60
2023-04-13T01:02:55.314Z,8.60
2023-04-13T01:05:26.325Z,8.60
2023-04-13T01:08:02.367Z,8.60
2023-04-13T01:10:36.552Z,8.70
2023-04-13T01:13:12.312Z,8.60
2023-04-13T01:15:46.243Z,8.70
2023-04-13T01:18:16.986Z,8.70
2023-04-13T01:20:47.620Z,8.70
2023-04-13T01:23:26.422Z,8.60
2023-04-13T01:25:58.751Z,8.60
2023-04-13T01:28:30.166Z,8.60
2023-04-13T01:31:00.534Z,8.50
2023-04-13T01:33:30.322Z,8.50
2023-04-13T01:36:00.800Z,8.50
2023-04-13T01:38:28.708Z,8.50
2023-04-13T01:40:57.268Z,8.50
2023-04-13T01:43:27.821Z,8.50
2023-04-13T01:46:01.052Z,8.50
2023-04-13T01:48:34.205Z,8.50
2023-04-13T01:51:07.382Z,8.40
2023-04-13T01:53:41.084Z,8.40
2023-04-13T01:56:12.904Z,8.40
2023-04-13T01:58:44.007Z,8.40
2023-04-13T02:01:12.866Z,8.40
2023-04-13T02:03:43.418Z,8.20
2023-04-13T02:06:12.013Z,8.20
2023-04-13T02:08:40.655Z,8.20
2023-04-13T02:11:10.315Z,8.20
2023-04-13T02:13:38.403Z,8.20
2023-04-13T02:16:10.216Z,8.20
2023-04-13T02:18:38.779Z,8.00
2023-04-13T02:21:09.515Z,8.00
2023-04-13T02:23:38.776Z,8.10
2023-04-13T02:26:09.352Z,8.00
2023-04-13T02:28:37.639Z,8.00
2023-04-13T02:31:07.693Z,8.00
2023-04-13T02:33:37.883Z,8.10
2023-04-13T02:36:07.682Z,8.10
2023-04-13T02:38:37.290Z,8.10
2023-04-13T02:41:06.472Z,8.10
2023-04-13T02:43:35.593Z,8.10
2023-04-13T02:46:04.416Z,8.10
2023-04-13T02:48:33.936Z,8.10
2023-04-13T02:51:02.477Z,8.10
2023-04-13T02:53:30.500Z,8.20
2023-04-13T02:55:58.626Z,8.00
2023-04-13T02:58:26.674Z,7.90
2023-04-13T03:00:54.663Z,7.90
2023-04-13T03:03:23.135Z,8.00
2023-04-13T03:05:52.711Z,8.00
2023-04-13T03:08:21.316Z,8.10
2023-04-13T03:10:49.238Z,8.10
2023-04-13T03:13:17.184Z,8.10
2023-04-13T03:15:46.836Z,8.10
2023-04-13T03:18:16.336Z,8.00
2023-04-13T03:20:44.462Z,8.00
2023-04-13T03:23:13.974Z,8.00
2023-04-13T03:25:41.902Z,8.00
2023-04-13T03:28:09.958Z,8.10
2023-04-13T03:30:38.072Z,8.10
2023-04-13T03:33:06.001Z,8.00
2023-04-13T03:35:34.018Z,8.00
2023-04-13T03:38:01.969Z,8.00
2023-04-13T03:40:31.308Z,8.10
2023-04-13T03:42:59.643Z,8.00
2023-04-13T03:45:27.579Z,7.90
2023-04-13T03:47:55.980Z,7.80
2023-04-13T03:50:23.889Z,7.80
2023-04-13T03:52:52.249Z,7.80
2023-04-13T03:55:20.251Z,7.80
2023-04-13T03:57:50.002Z,7.70
2023-04-13T04:00:18.483Z,7.70
2023-04-13T04:02:46.679Z,7.70
2023-04-13T04:05:16.575Z,7.70
2023-04-13T04:07:44.552Z,7.70
2023-04-13T04:10:12.720Z,7.70
2023-04-13T04:12:40.806Z,7.70
2023-04-13T04:15:11.498Z,7.70
2023-04-13T04:17:40.125Z,7.70
2023-04-13T04:20:10.250Z,7.70
2023-04-13T04:22:38.679Z,7.70
2023-04-13T04:25:07.533Z,7.70
2023-04-13T04:27:38.263Z,7.70
2023-04-13T04:30:10.970Z,7.70
2023-04-13T04:32:40.668Z,7.70
2023-04-13T04:35:09.830Z,7.70
2023-04-13T04:37:39.138Z,7.60
2023-04-13T04:40:09.780Z,7.50
2023-04-13T04:42:38.524Z,7.60
2023-04-13T04:45:07.278Z,7.60
2023-04-13T04:47:42.174Z,7.50
2023-04-13T04:50:12.870Z,7.50
2023-04-13T04:52:41.823Z,7.40
2023-04-13T04:55:10.608Z,7.30
2023-04-13T04:57:38.571Z,7.30
2023-04-13T05:00:10.853Z,7.30
2023-04-13T05:02:38.964Z,7.40
2023-04-13T05:05:07.565Z,7.40
2023-04-13T05:07:38.125Z,7.40
2023-04-13T05:10:07.148Z,7.40
2023-04-13T05:12:37.333Z,7.50
2023-04-13T05:15:06.697Z,7.50
2023-04-13T05:17:34.936Z,7.50
2023-04-13T05:20:06.736Z,7.50
2023-04-13T05:22:36.398Z,7.50
2023-04-13T05:25:04.608Z,7.60
2023-04-13T05:27:32.726Z,7.70
2023-04-13T05:30:00.740Z,7.70
2023-04-13T05:32:28.657Z,7.70
2023-04-13T05:34:56.756Z,7.70
2023-04-13T05:37:25.008Z,7.70
2023-04-13T05:39:54.580Z,7.70
2023-04-13T05:42:22.760Z,7.80
2023-04-13T05:44:50.826Z,7.80
2023-04-13T05:47:20.014Z,7.80
2023-04-13T05:49:48.017Z,7.70
2023-04-13T05:52:16.286Z,7.80
2023-04-13T05:54:44.560Z,7.70
2023-04-13T05:57:13.828Z,7.90
2023-04-13T05:59:41.799Z,8.00
2023-04-13T06:02:09.933Z,7.90
2023-04-13T06:04:38.223Z,8.00
2023-04-13T06:07:07.049Z,8.00
2023-04-13T06:09:34.963Z,8.00
2023-04-13T06:12:02.880Z,8.10
2023-04-13T06:14:32.928Z,8.10
2023-04-13T06:17:01.335Z,8.20
2023-04-13T06:19:29.435Z,8.30
2023-04-13T06:21:57.948Z,8.40
2023-04-13T06:24:26.199Z,8.30
2023-04-13T06:26:55.108Z,8.40
2023-04-13T06:29:22.972Z,8.30
2023-04-13T06:31:52.383Z,8.40
2023-04-13T06:34:20.265Z,8.50
2023-04-13T06:36:48.158Z,8.50
2023-04-13T06:39:16.220Z,8.60
2023-04-13T06:41:44.143Z,8.70
2023-04-13T06:44:12.392Z,8.80
2023-04-13T06:46:40.475Z,8.80
2023-04-13T06:49:10.141Z,8.90
2023-04-13T06:51:38.032Z,9.00
2023-04-13T06:54:06.176Z,9.20
2023-04-13T06:56:34.052Z,9.20
2023-04-13T06:59:03.003Z,9.20
2023-04-13T07:01:31.592Z,9.50
2023-04-13T07:04:00.145Z,9.60
2023-04-13T07:06:29.943Z,9.80
2023-04-13T07:08:58.224Z,9.70
2023-04-13T07:11:26.593Z,10.10
2023-04-13T07:13:54.664Z,10.30
2023-04-13T07:16:22.637Z,10.40
2023-04-13T07:18:50.929Z,10.60
2023-04-13T07:21:18.824Z,10.70
2023-04-13T07:23:48.227Z,11.00
2023-04-13T07:26:16.189Z,11.30
2023-04-13T07:28:44.145Z,11.60
2023-04-13T07:31:12.645Z,11.90
2023-04-13T07:33:40.691Z,12.30
2023-04-13T07:36:09.928Z,12.60
2023-04-13T07:38:38.474Z,12.80
2023-04-13T07:41:07.812Z,13.20
2023-04-13T07:43:37.367Z,13.70
2023-04-13T07:46:11.954Z,13.80
2023-04-13T07:48:40.938Z,14.10
2023-04-13T07:51:17.500Z,14.00
2023-04-13T07:53:46.166Z,14.20
2023-04-13T07:56:15.753Z,14.20
2023-04-13T07:58:43.705Z,14.50
2023-04-13T08:01:11.854Z,14.40
2023-04-13T08:03:40.175Z,14.20
2023-04-13T08:06:08.516Z,14.10
2023-04-13T08:08:36.409Z,14.10
2023-04-13T08:11:04.472Z,14.30
2023-04-13T08:13:33.698Z,14.40
2023-04-13T08:16:01.845Z,14.90
2023-04-13T08:18:31.666Z,15.10
2023-04-13T08:21:00.072Z,15.50
2023-04-13T08:23:29.002Z,16.00
2023-04-13T08:25:56.914Z,16.40
2023-04-13T08:28:25.680Z,17.00
2023-04-13T08:30:55.089Z,17.10
2023-04-13T08:33:23.138Z,18.20
2023-04-13T08:35:51.167Z,18.70
2023-04-13T08:38:20.045Z,18.50
2023-04-13T08:40:50.211Z,18.20
2023-04-13T08:43:20.454Z,18.00
2023-04-13T08:45:48.876Z,18.50
2023-04-13T08:48:19.635Z,18.80
2023-04-13T08:50:47.613Z,19.40
2023-04-13T08:53:19.180Z,19.70
2023-04-13T08:55:47.943Z,19.60
2023-04-13T08:58:21.027Z,19.50
2023-04-13T09:00:50.860Z,19.50
2023-04-13T09:03:25.953Z,19.00
2023-04-13T09:05:59.496Z,18.30
2023-04-13T09:08:29.347Z,18.00
2023-04-13T09:10:58.385Z,17.90
2023-04-13T09:13:29.219Z,17.80
2023-04-13T09:15:57.354Z,17.70
2023-04-13T09:18:27.415Z,17.60
2023-04-13T09:20:59.920Z,17.30
2023-04-13T09:23:28.334Z,17.70
2023-04-13T09:26:06.604Z,17.60
2023-04-13T09:28:34.773Z,18.20
2023-04-13T09:31:06.594Z,18.50
2023-04-13T09:33:46.227Z,18.50
2023-04-13T09:36:15.726Z,18.30
2023-04-13T09:38:45.128Z,18.40
2023-04-13T09:41:13.082Z,18.30
2023-04-13T09:43:41.406Z,18.00
2023-04-13T09:46:16.153Z,18.40
2023-04-13T09:48:45.799Z,19.20
2023-04-13T09:51:13.831Z,20.20
2023-04-13T09:53:43.662Z,21.60
2023-04-13T09:56:11.933Z,22.30
2023-04-13T09:58:44.229Z,22.60
2023-04-13T10:01:12.533Z,22.70
2023-04-13T10:03:40.838Z,22.20
2023-04-13T10:06:10.877Z,21.90
2023-04-13T10:08:39.473Z,21.00
2023-04-13T10:11:12.929Z,20.50
2023-04-13T10:13:47.033Z,19.90
2023-04-13T10:17:05.900Z,19.50
2023-04-13T10:19:39.105Z,19.90
2023-04-13T10:22:09.619Z,20.20
2023-04-13T10:24:39.094Z,20.60
2023-04-13T10:27:16.859Z,21.10
2023-04-13T10:29:45.340Z,21.50
2023-04-13T10:32:23.059Z,21.60
2023-04-13T10:34:52.662Z,20.90
2023-04-13T10:37:24.103Z,20.40
2023-04-13T10:40:05.786Z,19.50
2023-04-13T10:45:21.451Z,17.80
2023-04-13T10:47:49.715Z,17.30
2023-04-13T10:50:19.438Z,16.90
2023-04-13T10:53:01.231Z,16.60
2023-04-13T10:55:29.394Z,16.20
2023-04-13T10:57:58.467Z,16.10
2023-04-13T11:00:38.266Z,16.00
2023-04-13T11:03:15.282Z,16.10
2023-04-13T11:05:44.695Z,16.30
2023-04-13T11:08:21.225Z,16.10
2023-04-13T11:10:53.672Z,15.80
2023-04-13T11:13:22.170Z,15.70
2023-04-13T11:15:51.910Z,15.50
2023-04-13T11:18:26.933Z,15.10
2023-04-13T11:20:55.222Z,14.70
2023-04-13T11:23:25.341Z,14.50
2023-04-13T11:25:55.150Z,14.30
2023-04-13T11:28:24.040Z,14.20
2023-04-13T11:30:56.542Z,14.10
2023-04-13T11:33:28.745Z,14.20
2023-04-13T11:35:58.780Z,14.10
2023-04-13T11:38:28.551Z,14.00
2023-04-13T11:43:36.198Z,13.90
2023-04-13T11:46:04.360Z,13.90
2023-04-13T11:48:32.728Z,13.80
2023-04-13T11:51:01.107Z,13.80
2023-04-13T11:53:32.275Z,13.60
2023-04-13T11:56:00.314Z,13.50
2023-04-13T11:58:28.254Z,13.30
2023-04-13T12:01:02.160Z,13.30
2023-04-13T12:03:52.922Z,13.40
2023-04-13T12:06:24.657Z,13.50
2023-04-13T12:09:09.130Z,13.30
2023-04-13T12:11:42.015Z,13.10
2023-04-13T12:14:47.201Z,13.00
2023-04-13T12:17:34.760Z,13.10
2023-04-13T12:20:01.551Z,13.20
2023-04-13T12:22:51.474Z,13.10
2023-04-13T12:25:25.919Z,13.10
2023-04-13T12:27:54.954Z,13.00
2023-04-13T12:30:24.022Z,13.10
2023-04-13T12:32:54.295Z,13.00
2023-04-13T12:35:22.556Z,13.00
2023-04-13T12:37:52.729Z,12.90
2023-04-13T12:40:20.936Z,12.90
2023-04-13T12:42:50.729Z,12.70
2023-04-13T12:45:18.717Z,12.70
2023-04-13T12:47:46.682Z,12.50
2023-04-13T12:50:14.941Z,12.50
2023-04-13T12:52:44.322Z,12.30
2023-04-13T12:55:12.405Z,12.10
2023-04-13T12:57:40.536Z,12.00
2023-04-13T13:00:12.619Z,11.90
2023-04-13T13:02:40.815Z,11.80
2023-04-13T13:05:09.692Z,11.90
2023-04-13T13:07:37.649Z,11.80
2023-04-13T13:10:14.965Z,11.80
2023-04-13T13:12:50.088Z,11.90
2023-04-13T13:15:19.603Z,11.80
2023-04-13T13:17:47.718Z,11.70
2023-04-13T13:20:15.711Z,11.80
2023-04-13T13:22:43.951Z,11.70
2023-04-13T13:25:12.231Z,11.50
2023-04-13T13:28:10.357Z,11.40
2023-04-13T13:30:29.991Z,11.40
2023-04-13T13:32:57.941Z,11.30
2023-04-13T13:35:25.897Z,11.30
2023-04-13T13:37:53.942Z,11.30
2023-04-13T13:40:22.210Z,11.30
2023-04-13T13:42:52.206Z,11.50
2023-04-13T13:45:21.093Z,11.60
2023-04-13T13:47:52.828Z,11.70
2023-04-13T13:50:21.736Z,11.60
2023-04-13T13:53:02.365Z,11.60
2023-04-13T13:55:31.854Z,11.70
2023-04-13T13:58:00.078Z,11.70
2023-04-13T14:00:28.024Z,11.70
2023-04-13T14:02:57.431Z,11.60
2023-04-13T14:05:26.479Z,11.40
2023-04-13T14:07:54.529Z,11.50
2023-04-13T14:10:22.633Z,11.60
2023-04-13T14:12:51.878Z,11.60
2023-04-13T14:15:20.331Z,11.60
2023-04-13T14:17:58.665Z,12.00
2023-04-13T14:20:38.697Z,12.00
2023-04-13T14:23:07.096Z,12.20
2023-04-13T14:25:35.550Z,12.20
2023-04-13T14:28:03.469Z,12.40
2023-04-13T14:30:31.602Z,12.50
2023-04-13T14:32:59.633Z,12.60
2023-04-13T14:35:27.772Z,12.80
2023-04-13T14:37:57.400Z,12.70
2023-04-13T14:40:25.513Z,12.80
2023-04-13T14:42:53.590Z,12.80
2023-04-13T14:45:22.146Z,12.50
2023-04-13T14:47:50.677Z,12.30
2023-04-13T14:50:18.817Z,12.20
2023-04-13T14:52:47.285Z,12.30
2023-04-13T14:55:17.919Z,12.30
2023-04-13T14:57:46.159Z,12.00
2023-04-13T15:00:21.213Z,12.10
2023-04-13T15:02:50.497Z,12.10
2023-04-13T15:05:18.924Z,12.30
2023-04-13T15:07:47.920Z,12.50
2023-04-13T15:10:18.500Z,12.60
2023-04-13T15:12:46.531Z,12.40
2023-04-13T15:15:14.804Z,12.40
2023-04-13T15:17:42.895Z,12.10
2023-04-13T15:20:12.214Z,12.10
2023-04-13T15:22:40.313Z,12.10
2023-04-13T15:25:09.274Z,12.20
2023-04-13T15:27:38.593Z,12.10
2023-04-13T15:30:10.176Z,12.10
2023-04-13T15:32:38.256Z,12.10
2023-04-13T15:35:06.645Z,12.10
2023-04-13T15:37:34.708Z,12.20
2023-04-13T15:40:05.872Z,12.10
2023-04-13T15:42:34.686Z,12.20
2023-04-13T15:45:05.196Z,12.40
2023-04-13T15:47:33.872Z,12.30
2023-04-13T15:50:01.945Z,12.10
2023-04-13T15:52:30.226Z,12.20
2023-04-13T15:54:58.319Z,12.10
2023-04-13T15:57:26.340Z,11.90
2023-04-13T15:59:54.306Z,11.80
2023-04-13T16:02:23.975Z,11.70
2023-04-13T16:04:52.190Z,11.60
2023-04-13T16:07:20.319Z,11.60
2023-04-13T16:09:51.243Z,11.50
2023-04-13T16:12:20.290Z,11.40
2023-04-13T16:14:48.228Z,11.60
2023-04-13T16:17:16.497Z,11.60
2023-04-13T16:19:47.424Z,11.60
2023-04-13T16:22:16.020Z,11.60
2023-04-13T16:24:44.130Z,11.40
2023-04-13T16:27:13.005Z,11.30
2023-04-13T16:29:43.302Z,11.20
2023-04-13T16:32:11.733Z,11.10
2023-04-13T16:34:39.684Z,11.10
2023-04-13T16:37:09.242Z,11.10
2023-04-13T16:39:37.947Z,10.90
2023-04-13T16:42:06.175Z,10.90
2023-04-13T16:44:34.276Z,10.70
2023-04-13T16:47:02.223Z,10.60
2023-04-13T16:49:31.920Z,10.50
2023-04-13T16:51:59.847Z,10.30
2023-04-13T16:54:29.458Z,10.20
2023-04-13T16:56:57.426Z,10.10
2023-04-13T16:59:25.458Z,10.00
2023-04-13T17:01:53.501Z,9.90
2023-04-13T17:04:21.647Z,9.80
2023-04-13T17:06:49.880Z,9.70
2023-04-13T17:09:17.769Z,9.70
2023-04-13T17:11:47.023Z,9.60
2023-04-13T17:14:15.183Z,9.60
2023-04-13T17:16:43.196Z,9.60
2023-04-13T17:19:11.500Z,9.50
2023-04-13T17:21:41.263Z,9.50
2023-04-13T17:24:09.743Z,9.50
2023-04-13T17:26:38.019Z,9.50
2023-04-13T17:29:08.091Z,9.40
2023-04-13T17:31:36.079Z,9.40
2023-04-13T17:34:04.255Z,9.40
2023-04-13T17:36:32.667Z,9.50
2023-04-13T17:39:01.620Z,9.50
2023-04-13T17:41:29.887Z,9.50
2023-04-13T17:43:58.002Z,9.60
2023-04-13T17:46:27.949Z,9.50
2023-04-13T17:48:56.141Z,9.60
2023-04-13T17:51:24.045Z,9.60
2023-04-13T17:53:52.290Z,9.50
2023-04-13T17:56:20.994Z,9.40
2023-04-13T17:58:48.985Z,9.40
2023-04-13T18:01:17.516Z,9.40
2023-04-13T18:03:47.240Z,9.30
2023-04-13T18:06:15.830Z,9.20
2023-04-13T18:08:43.754Z,9.20
2023-04-13T18:11:12.236Z,9.10
2023-04-13T18:13:41.170Z,9.00
2023-04-13T18:16:10.644Z,8.90
2023-04-13T18:18:40.613Z,8.70
2023-04-13T18:21:09.884Z,8.80
2023-04-13T18:23:37.836Z,8.80
2023-04-13T18:26:05.802Z,8.70
2023-04-13T18:28:36.708Z,8.70
2023-04-13T18:31:05.796Z,8.70
2023-04-13T18:33:34.130Z,8.70
2023-04-13T18:36:02.363Z,8.60
2023-04-13T18:38:31.836Z,8.80
2023-04-13T18:40:59.821Z,8.70
2023-04-13T18:43:27.779Z,8.80
2023-04-13T18:45:55.827Z,8.80
2023-04-13T18:48:23.713Z,8.80
2023-04-13T18:50:51.808Z,8.70
2023-04-13T18:53:20.020Z,8.60
2023-04-13T18:55:51.128Z,8.60
2023-04-13T18:58:19.895Z,8.50
2023-04-13T19:00:47.911Z,8.50
2023-04-13T19:03:16.231Z,8.40
2023-04-13T19:05:44.471Z,8.40
2023-04-13T19:08:13.424Z,8.40
2023-04-13T19:10:42.719Z,8.30
2023-04-13T19:13:11.968Z,8.40
2023-04-13T19:15:40.389Z,8.40
2023-04-13T19:18:11.185Z,8.40
2023-04-13T19:20:39.158Z,8.40
2023-04-13T19:23:07.650Z,8.40
2023-04-13T19:25:35.673Z,8.30
2023-04-13T19:28:03.613Z,8.30
2023-04-13T19:30:33.388Z,8.30
2023-04-13T19:33:01.356Z,8.30
2023-04-13T19:35:29.768Z,8.30
2023-04-13T19:37:58.065Z,8.30
2023-04-13T19:40:27.413Z,8.30
2023-04-13T19:42:55.675Z,8.30
2023-04-13T19:45:23.812Z,8.30
2023-04-13T19:47:53.180Z,8.30
2023-04-13T19:50:22.382Z,8.50
2023-04-13T19:52:52.711Z,8.50
2023-04-13T19:55:21.022Z,8.50
2023-04-13T19:57:49.030Z,8.50
2023-04-13T20:00:20.730Z,8.50
2023-04-13T20:02:50.947Z,8.40
2023-04-13T20:05:21.520Z,8.40
2023-04-13T20:07:50.302Z,8.40
2023-04-13T20:10:18.344Z,8.30
2023-04-13T20:12:46.211Z,8.20
2023-04-13T20:15:14.952Z,8.20
2023-04-13T20:17:42.984Z,8.30
2023-04-13T20:20:11.587Z,8.40
2023-04-13T20:22:41.395Z,8.40
2023-04-13T20:25:11.158Z,8.30
2023-04-13T20:27:42.133Z,8.30
2023-04-13T20:30:11.100Z,8.20
2023-04-13T20:32:39.312Z,8.10
2023-04-13T20:35:08.547Z,8.10
2023-04-13T20:37:36.614Z,8.00
2023-04-13T20:40:07.437Z,8.00
2023-04-13T20:42:35.626Z,7.90
2023-04-13T20:45:04.400Z,7.80
2023-04-13T20:47:32.589Z,7.70
2023-04-13T20:50:00.914Z,7.80
2023-04-13T20:52:30.083Z,7.70
2023-04-13T20:54:58.327Z,7.70
2023-04-13T20:57:27.834Z,7.60
2023-04-13T20:59:55.895Z,7.50
2023-04-13T21:02:24.216Z,7.50
2023-04-13T21:04:53.931Z,7.40
2023-04-13T21:07:22.240Z,7.40
2023-04-13T21:09:50.399Z,7.30
2023-04-13T21:12:18.306Z,7.30
2023-04-13T21:14:47.724Z,7.30
2023-04-13T21:17:15.595Z,7.30
2023-04-13T21:19:43.649Z,7.30
2023-04-13T21:22:11.630Z,7.30
2023-04-13T21:24:39.670Z,7.30
2023-04-13T21:27:07.943Z,7.20
2023-04-13T21:29:35.957Z,7.20
2023-04-13T21:32:05.345Z,7.10
2023-04-13T21:34:33.864Z,7.20
2023-04-13T21:37:03.128Z,7.20
2023-04-13T21:39:31.337Z,7.20
2023-04-13T21:41:59.210Z,7.20
2023-04-13T21:44:29.960Z,7.20
2023-04-13T21:46:58.392Z,7.20
2023-04-13T21:49:28.295Z,7.20
2023-04-13T21:51:56.186Z,7.20
2023-04-13T21:54:24.387Z,7.20
2023-04-13T21:56:52.442Z,7.20
2023-04-13T21:59:20.338Z,7.20
2023-04-13T22:01:48.378Z,7.10
2023-04-13T22:04:16.619Z,7.10
2023-04-13T22:06:46.136Z,7.00
2023-04-13T22:09:14.106Z,7.10
2023-04-13T22:11:42.150Z,7.10
2023-04-13T22:14:10.022Z,7.10
2023-04-13T22:16:38.214Z,7.10
2023-04-13T22:19:06.225Z,7.00
2023-04-13T22:21:36.983Z,7.00
2023-04-13T22:24:06.698Z,6.90
2023-04-13T22:26:34.617Z,6.90
2023-04-13T22:29:02.878Z,6.90
2023-04-13T22:31:31.278Z,7.00
2023-04-13T22:33:59.204Z,7.10
2023-04-13T22:36:27.136Z,7.00
2023-04-13T22:38:55.220Z,6.90
2023-04-13T22:41:24.520Z,6.90
2023-04-13T22:43:52.705Z,6.90
2023-04-13T22:46:20.819Z,6.80
2023-04-13T22:48:49.041Z,6.70
2023-04-13T22:51:16.923Z,6.70
2023-04-13T22:53:44.837Z,6.70
2023-04-13T22:56:12.890Z,6.70
2023-04-13T22:58:42.164Z,6.70
2023-04-13T23:01:10.561Z,6.70
2023-04-13T23:03:38.944Z,6.70
2023-04-13T23:06:07.601Z,6.60
2023-04-13T23:08:35.500Z,6.60
2023-04-13T23:11:09.930Z,6.60
2023-04-13T23:13:38.033Z,6.60
2023-04-13T23:16:08.124Z,6.60
2023-04-13T23:18:36.131Z,6.60
2023-04-13T23:21:11.086Z,6.60
2023-04-13T23:23:39.368Z,6.50
2023-04-13T23:26:07.571Z,6.40
2023-04-13T23:28:35.804Z,6.50
2023-04-13T23:31:05.054Z,6.50
2023-04-13T23:33:34.543Z,6.50
2023-04-13T23:36:03.533Z,6.50
2023-04-13T23:38:33.080Z,6.60
2023-04-13T23:41:01.244Z,6.50
2023-04-13T23:43:29.132Z,6.50
2023-04-13T23:45:58.704Z,6.60
2023-04-13T23:48:27.367Z,6.50
2023-04-13T23:50:57.272Z,6.50
2023-04-13T23:53:25.625Z,6.50
2023-04-13T23:55:53.586Z,6.50
2023-04-13T23:58:21.797Z,6.50
